Time,TemperatureF,DewpointF,PressureIn,WindDirection,WindDirectionDegrees,WindSpeedMPH,WindSpeedGustMPH,Humidity,HourlyPrecipIn,Conditions,Clouds,dailyrainin,SoftwareType,DateUTC
2013-01-08 00:16:00,27.4,23.0,30.35,East,96,11.0,21.0,83,0.00,,,0.00,weatherlink.com 1.10,2013-01-08 05:16:00,
2013-01-08 00:31:00,26.8,23.0,30.35,SW,219,14.0,16.0,86,0.00,,,0.00,weatherlink.com 1.10,2013-01-08 05:31:00,
2013-01-08 00:46:00,27.0,23.0,30.35,West,269,7.0,21.0,85,0.00,,,0.00,weatherlink.com 1.10,2013-01-08 05:46:00,
2013-01-08 01:01:00,27.5,23.0,30.34,NNW,342,6.0,27.0,82,0.00,,,0.00,weatherlink.com 1.10,2013-01-08 06:01:00,
2013-01-08 01:16:00,28.3,23.0,30.34,NW,323,8.0,27.0,81,0.00,,,0.00,weatherlink.com 1.10,2013-01-08 06:16:00,
2013-01-08 01:32:00,28.6,24.0,30.34,ENE,77,8.0,26.0,84,0.00,,,0.00,weatherlink.com 1.10,2013-01-08 06:32:00,
2013-01-08 01:46:00,29.0,25.0,30.33,NNW,334,9.0,30.0,85,0.00,,,0.00,weatherlink.com 1.10,2013-01-08 06:46:00,
2013-01-08 02:01:00,29.3,25.0,30.32,SSE,156,14.0,32.0,83,0.00,,,0.00,weatherlink.com 1.10,2013-01-08 07:01:00,
2013-01-08 02:17:00,29.5,25.0,30.33,NNE,12,13.0,31.0,82,0.00,,,0.00,weatherlink.com 1.10,2013-01-08 07:17:00,
2013-01-08 02:32:00,29.7,25.0,30.34,North,4,20.0,24.0,82,0.00,,,0.00,weatherlink.com 1.10,2013-01-08 07:32:00,
2013-01-08 02:47:00,30.1,25.0,30.32,South,180,14.0,27.0,81,0.00,,,0.00,weatherlink.com 1.10,2013-01-08 07:47:00,
2013-01-08 03:02:00,30.1,25.0,30.32,South,187,10.0,26.0,80,0.00,,,0.00,weatherlink.com 1.10,2013-01-08 08:02:00,
2013-01-08 03:17:00,30.3,25.0,30.31,SW,226,15.0,25.0,81,0.00,,,0.00,weatherlink.com 1.10,2013-01-08 08:17:00,
2013-01-08 03:32:00,30.6,25.0,30.31,SSW,205,14.0,24.0,79,0.00,,,0.00,weatherlink.com 1.10,2013-01-08 08:32:00,
2013-01-08 03:47:00,30.8,25.0,30.30,SSW,207,17.0,26.0,80,0.00,,,0.00,weatherlink.com 1.10,2013-01-08 08:47:00,
2013-01-08 04:02:00,30.5,25.0,30.30,South,178,25.0,29.0,80,0.00,,,0.00,weatherlink.com 1.10,2013-01-08 09:02:00,
2013-01-08 04:17:00,30.0,25.0,30.30,SSW,207,15.0,27.0,82,0.00,,,0.00,weatherlink.com 1.10,2013-01-08 09:17:00,
2013-01-08 04:32:00,30.1,25.0,30.30,East,86,16.0,26.0,82,0.00,,,0.00,weatherlink.com 1.10,2013-01-08 09:32:00,
2013-01-08 04:47:00,30.1,25.0,30.30,ESE,122,14.0,25.0,80,0.00,,,0.00,weatherlink.com 1.10,2013-01-08 09:47:00,
2013-01-08 05:02:00,30.1,25.0,30.31,East,98,13.0,25.0,81,0.00,,,0.00,weatherlink.com 1.10,2013-01-08 10:02:00,
2013-01-08 05:17:00,30.2,25.0,30.31,SW,227,15.0,25.0,82,0.00,,,0.00,weatherlink.com 1.10,2013-01-08 10:17:00,
2013-01-08 05:32:00,30.2,25.0,30.32,NNW,336,8.0,23.0,82,0.00,,,0.00,weatherlink.com 1.10,2013-01-08 10:32:00,
2013-01-08 05:47:00,30.2,25.0,30.32,SW,215,11.0,25.0,82,0.00,,,0.00,weatherlink.com 1.10,2013-01-08 10:47:00,
2013-01-08 06:02:00,30.1,25.0,30.33,West,263,15.0,26.0,82,0.00,,,0.00,weatherlink.com 1.10,2013-01-08 11:02:00,
2013-01-08 06:17:00,29.8,25.0,30.33,SE,139,8.0,23.0,83,0.00,,,0.00,weatherlink.com 1.10,2013-01-08 11:17:00,
2013-01-08 06:32:00,29.8,25.0,30.34,South,172,19.0,21.0,83,0.00,,,0.00,weatherlink.com 1.10,2013-01-08 11:32:00,
2013-01-08 06:47:00,29.9,25.0,30.34,SE,146,9.0,26.0,83,0.00,,,0.00,weatherlink.com 1.10,2013-01-08 11:47:00,
2013-01-08 07:02:00,29.9,25.0,30.35,NNW,347,9.0,23.0,83,0.00,,,0.00,weatherlink.com 1.10,2013-01-08 12:02:00,
2013-01-08 07:17:00,29.8,25.0,30.35,SSW,204,16.0,23.0,83,0.00,,,0.00,weatherlink.com 1.10,2013-01-08 12:17:00,
2013-01-08 07:32:00,29.9,25.0,30.36,SSW,197,17.0,26.0,83,0.00,,,0.00,weatherlink.com 1.10,2013-01-08 12:32:00,
2013-01-08 07:47:00,29.7,25.0,30.37,South,173,12.0,23.0,83,0.00,,,0.00,weatherlink.com 1.10,2013-01-08 12:47:00,
2013-01-08 08:02:00,30.1,25.0,30.37,South,186,20.0,22.0,82,0.00,,,0.00,weatherlink.com 1.10,2013-01-08 13:02:00,
2013-01-08 08:17:00,30.5,26.0,30.37,SSW,197,22.0,28.0,82,0.00,,,0.00,weatherlink.com 1.10,2013-01-08 13:17:00,
2013-01-08 08:32:00,30.8,26.0,30.37,SW,214,16.0,28.0,82,0.00,,,0.00,weatherlink.com 1.10,2013-01-08 13:32:00,
2013-01-08 08:47:00,31.1,26.0,30.37,NE,51,17.0,28.0,81,0.00,,,0.00,weatherlink.com 1.10,2013-01-08 13:47:00,
2013-01-08 09:02:00,31.3,26.0,30.37,SE,134,17.0,29.0,81,0.00,,,0.00,weatherlink.com 1.10,2013-01-08 14:02:00,
2013-01-08 09:17:00,31.4,26.0,30.37,SSW,197,22.0,29.0,80,0.00,,,0.00,weatherlink.com 1.10,2013-01-08 14:17:00,
2013-01-08 09:32:00,31.8,26.0,30.38,South,176,23.0,31.0,79,0.00,,,0.00,weatherlink.com 1.10,2013-01-08 14:32:00,
2013-01-08 09:47:00,32.1,26.0,30.38,South,169,16.0,28.0,79,0.00,,,0.00,weatherlink.com 1.10,2013-01-08 14:47:00,
2013-01-08 10:02:00,32.5,27.0,30.38,NE,44,9.0,28.0,79,0.00,,,0.00,weatherlink.com 1.10,2013-01-08 15:02:00,
2013-01-08 10:17:00,33.0,27.0,30.38,South,179,8.0,25.0,78,0.00,,,0.00,weatherlink.com 1.10,2013-01-08 15:17:00,
2013-01-08 10:32:00,33.3,27.0,30.37,South,181,18.0,26.0,77,0.00,,,0.00,weatherlink.com 1.10,2013-01-08 15:32:00,
2013-01-08 10:47:00,33.7,27.0,30.37,WNW,293,14.0,24.0,76,0.00,,,0.00,weatherlink.com 1.10,2013-01-08 15:47:00,
2013-01-08 11:02:00,34.4,27.0,30.36,SSW,205,20.0,24.0,75,0.00,,,0.00,weatherlink.com 1.10,2013-01-08 16:02:00,
2013-01-08 11:17:00,35.1,28.0,30.36,SW,219,15.0,22.0,74,0.00,,,0.00,weatherlink.com 1.10,2013-01-08 16:17:00,
2013-01-08 11:32:00,35.7,27.0,30.35,SW,226,5.0,23.0,72,0.00,,,0.00,weatherlink.com 1.10,2013-01-08 16:32:00,
2013-01-08 11:47:00,36.1,28.0,30.35,South,188,19.0,24.0,71,0.00,,,0.00,weatherlink.com 1.10,2013-01-08 16:47:00,
2013-01-08 12:02:00,36.8,28.0,30.34,SSE,160,15.0,22.0,70,0.00,,,0.00,weatherlink.com 1.10,2013-01-08 17:02:00,
2013-01-08 12:17:00,37.1,28.0,30.33,SE,134,14.0,22.0,71,0.00,,,0.00,weatherlink.com 1.10,2013-01-08 17:17:00,
2013-01-08 12:33:00,37.1,28.0,30.32,SSW,207,15.0,21.0,71,0.00,,,0.00,weatherlink.com 1.10,2013-01-08 17:33:00,
2013-01-08 12:48:00,37.6,28.0,30.32,East,81,8.0,23.0,69,0.00,,,0.00,weatherlink.com 1.10,2013-01-08 17:48:00,
2013-01-08 13:03:00,38.3,29.0,30.32,SSE,155,12.0,18.0,68,0.00,,,0.00,weatherlink.com 1.10,2013-01-08 18:03:00,
2013-01-08 13:18:00,39.1,29.0,30.32,South,169,16.0,16.0,66,0.00,,,0.00,weatherlink.com 1.10,2013-01-08 18:18:00,
2013-01-08 13:33:00,39.5,29.0,30.32,South,191,11.0,18.0,66,0.00,,,0.00,weatherlink.com 1.10,2013-01-08 18:33:00,
2013-01-08 13:48:00,39.6,29.0,30.32,South,181,9.0,16.0,66,0.00,,,0.00,weatherlink.com 1.10,2013-01-08 18:48:00,
2013-01-08 14:03:00,40.2,29.0,30.32,SSE,165,8.0,13.0,65,0.00,,,0.00,weatherlink.com 1.10,2013-01-08 19:03:00,
2013-01-08 14:18:00,41.6,29.0,30.32,SSE,163,9.0,15.0,61,0.00,,,0.00,weatherlink.com 1.10,2013-01-08 19:18:00,
2013-01-08 14:33:00,42.1,29.0,30.32,SSE,163,8.0,13.0,59,0.00,,,0.00,weatherlink.com 1.10,2013-01-08 19:33:00,
2013-01-08 14:48:00,42.4,28.0,30.32,SW,219,9.0,10.0,58,0.00,,,0.00,weatherlink.com 1.10,2013-01-08 19:48:00,
2013-01-08 15:03:00,41.9,28.0,30.33,SE,143,5.0,11.0,59,0.00,,,0.00,weatherlink.com 1.10,2013-01-08 20:03:00,
2013-01-08 15:19:00,41.5,29.0,30.33,West,274,2.0,11.0,61,0.00,,,0.00,weatherlink.com 1.10,2013-01-08 20:19:00,
2013-01-08 15:33:00,40.9,29.0,30.33,South,176,7.0,9.0,63,0.00,,,0.00,weatherlink.com 1.10,2013-01-08 20:33:00,
2013-01-08 15:48:00,39.1,30.0,30.33,South,169,5.0,8.0,69,0.00,,,0.00,weatherlink.com 1.10,2013-01-08 20:48:00,
2013-01-08 16:03:00,41.0,29.0,30.33,SW,229,2.0,8.0,63,0.00,,,0.00,weatherlink.com 1.10,2013-01-08 21:03:00,
2013-01-08 16:18:00,41.6,28.0,30.33,ENE,65,2.0,3.0,60,0.00,,,0.00,weatherlink.com 1.10,2013-01-08 21:18:00,
2013-01-08 16:33:00,41.6,28.0,30.34,North,349,1.0,3.0,60,0.00,,,0.00,weatherlink.com 1.10,2013-01-08 21:33:00,
2013-01-08 16:48:00,38.6,29.0,30.34,ENE,75,1.0,2.0,68,0.00,,,0.00,weatherlink.com 1.10,2013-01-08 21:48:00,
2013-01-08 17:03:00,38.4,29.0,30.34,SSE,160,1.0,2.0,68,0.00,,,0.00,weatherlink.com 1.10,2013-01-08 22:03:00,
2013-01-08 17:18:00,38.2,29.0,30.34,SW,218,2.0,3.0,69,0.00,,,0.00,weatherlink.com 1.10,2013-01-08 22:18:00,
2013-01-08 17:33:00,38.2,29.0,30.35,SW,217,2.0,5.0,69,0.00,,,0.00,weatherlink.com 1.10,2013-01-08 22:33:00,
2013-01-08 17:48:00,35.9,28.0,30.35,SW,225,0.0,0.0,74,0.00,,,0.00,weatherlink.com 1.10,2013-01-08 22:48:00,
2013-01-08 18:03:00,35.0,29.0,30.36,West,273,2.0,3.0,78,0.00,,,0.00,weatherlink.com 1.10,2013-01-08 23:03:00,
2013-01-08 18:18:00,33.6,28.0,30.36,SW,219,0.0,1.0,81,0.00,,,0.00,weatherlink.com 1.10,2013-01-08 23:18:00,
2013-01-08 18:33:00,32.7,28.0,30.35,South,187,0.0,4.0,83,0.00,,,0.00,weatherlink.com 1.10,2013-01-08 23:33:00,
2013-01-08 18:49:00,32.7,28.0,30.36,SW,225,4.0,4.0,83,0.00,,,0.00,weatherlink.com 1.10,2013-01-08 23:49:00,
2013-01-08 19:04:00,32.6,28.0,30.37,NW,309,2.0,3.0,84,0.00,,,0.00,weatherlink.com 1.10,2013-01-09 00:04:00,
2013-01-08 19:19:00,32.6,29.0,30.38,NE,36,2.0,3.0,85,0.00,,,0.00,weatherlink.com 1.10,2013-01-09 00:19:00,
2013-01-08 19:34:00,32.2,29.0,30.38,NNW,340,1.0,4.0,86,0.00,,,0.00,weatherlink.com 1.10,2013-01-09 00:34:00,
2013-01-08 19:49:00,31.8,28.0,30.38,North,4,1.0,2.0,86,0.00,,,0.00,weatherlink.com 1.10,2013-01-09 00:49:00,
2013-01-08 20:04:00,31.7,28.0,30.38,ENE,60,0.0,1.0,86,0.00,,,0.00,weatherlink.com 1.10,2013-01-09 01:04:00,
2013-01-08 20:19:00,31.1,28.0,30.38,North,1,3.0,3.0,88,0.00,,,0.00,weatherlink.com 1.10,2013-01-09 01:19:00,
2013-01-08 20:34:00,30.9,28.0,30.39,NNE,23,1.0,3.0,88,0.00,,,0.00,weatherlink.com 1.10,2013-01-09 01:34:00,
2013-01-08 20:49:00,30.6,28.0,30.38,NNW,347,5.0,5.0,88,0.00,,,0.00,weatherlink.com 1.10,2013-01-09 01:49:00,
2013-01-08 21:04:00,30.5,27.0,30.38,North,352,6.0,7.0,88,0.00,,,0.00,weatherlink.com 1.10,2013-01-09 02:04:00,
2013-01-08 21:19:00,30.4,28.0,30.38,North,355,5.0,5.0,89,0.00,,,0.00,weatherlink.com 1.10,2013-01-09 02:19:00,
2013-01-08 21:34:00,30.1,28.0,30.39,NW,315,0.0,3.0,90,0.00,,,0.00,weatherlink.com 1.10,2013-01-09 02:34:00,
2013-01-08 21:49:00,29.9,27.0,30.40,North,356,0.0,2.0,88,0.00,,,0.00,weatherlink.com 1.10,2013-01-09 02:49:00,
2013-01-08 22:04:00,29.7,27.0,30.40,North,360,1.0,2.0,90,0.00,,,0.00,weatherlink.com 1.10,2013-01-09 03:04:00,
2013-01-08 22:19:00,29.4,26.0,30.41,WNW,298,3.0,3.0,88,0.00,,,0.00,weatherlink.com 1.10,2013-01-09 03:19:00,
2013-01-08 22:34:00,29.4,26.0,30.41,North,5,0.0,1.0,86,0.00,,,0.00,weatherlink.com 1.10,2013-01-09 03:34:00,
2013-01-08 22:49:00,28.9,26.0,30.41,NNW,335,0.0,0.0,89,0.00,,,0.00,weatherlink.com 1.10,2013-01-09 03:49:00,
2013-01-08 23:04:00,28.6,26.0,30.41,SSE,149,0.0,2.0,90,0.00,,,0.00,weatherlink.com 1.10,2013-01-09 04:04:00,
2013-01-08 23:19:00,28.3,26.0,30.41,WSW,249,0.0,0.0,90,0.00,,,0.00,weatherlink.com 1.10,2013-01-09 04:19:00,
2013-01-08 23:34:00,27.8,25.0,30.41,SSW,211,1.0,1.0,90,0.00,,,0.00,weatherlink.com 1.10,2013-01-09 04:34:00,
2013-01-08 23:49:00,27.8,26.0,30.41,South,172,0.0,1.0,91,0.00,,,0.00,weatherlink.com 1.10,2013-01-09 04:49:00,